Time;durP1;ratioP1;P1;durP2;ratioP2;P2;SDS_P1;SDS_P2;PMS_P1;PMS_P2;Temp;Humidity;BMP_temperature;BMP_pressure;BME280_temperature;BME280_humidity;BME280_pressure;Samples;Min_cycle;Max_cycle;Signal;HPM_P1;HPM_P2
2022/11/11 00:02:21;;;;;;;20.42;10.88;;;;;;;14.41;69.00;102848.06;5009999;28;20416;-43
2022/11/11 00:04:46;;;;;;;18.35;11.07;;;;;;;14.43;69.16;102834.16;5010149;28;20498;-40
2022/11/11 00:07:12;;;;;;;21.20;11.55;;;;;;;14.30;69.85;102854.72;5009941;28;20038;-43
2022/11/11 00:09:37;;;;;;;21.52;11.48;;;;;;;14.64;68.32;102854.88;5010025;28;20022;-42
2022/11/11 00:12:02;;;;;;;25.33;12.13;;;;;;;14.33;69.54;102849.56;5009804;28;20493;-44
2022/11/11 00:14:28;;;;;;;22.63;12.25;;;;;;;14.46;69.13;102849.97;5010200;28;20026;-41
2022/11/11 00:25:06;;;;;;;20.75;12.68;;;;;;;14.53;68.73;102830.94;5010038;28;20121;-44
2022/11/11 00:27:32;;;;;;;21.55;12.10;;;;;;;14.53;68.32;102828.31;5009426;28;20092;-44
2022/11/11 00:29:58;;;;;;;24.65;12.48;;;;;;;14.04;70.40;102831.22;5012744;28;20018;-45
2022/11/11 00:32:23;;;;;;;21.45;12.52;;;;;;;14.23;70.14;102833.53;5013819;28;20104;-44
2022/11/11 00:37:45;;;;;;;21.50;12.88;;;;;;;14.12;70.08;102819.22;4985519;28;20491;-43
2022/11/11 00:40:12;;;;;;;22.50;12.55;;;;;;;14.11;70.09;102825.31;5014020;28;20034;-44
2022/11/11 00:42:37;;;;;;;22.20;13.27;;;;;;;13.91;70.73;102817.66;5013276;28;20026;-46
2022/11/11 00:45:03;;;;;;;22.95;12.70;;;;;;;14.10;70.16;102820.91;5013495;28;20044;-47
2022/11/11 00:53:26;;;;;;;23.58;12.52;;;;;;;14.12;69.96;102810.47;5013760;28;20104;-43
2022/11/11 00:55:52;;;;;;;25.58;13.07;;;;;;;13.70;71.50;102817.91;5013496;28;20085;-45
2022/11/11 00:58:18;;;;;;;24.85;13.15;;;;;;;14.12;70.52;102816.59;5013582;28;20037;-44
2022/11/11 01:00:43;;;;;;;26.48;13.23;;;;;;;13.93;71.41;102813.38;5012771;28;20342;-43
2022/11/11 01:03:09;;;;;;;25.48;12.90;;;;;;;14.12;70.28;102810.47;5013393;28;20061;-42
2022/11/11 01:05:36;;;;;;;22.55;12.55;;;;;;;14.07;70.17;102804.19;5013787;28;20509;-42
2022/11/11 01:08:02;;;;;;;23.63;13.15;;;;;;;13.97;70.60;102803.03;5013737;28;20054;-42
2022/11/11 01:10:43;;;;;;;24.10;13.32;;;;;;;14.04;70.36;102804.09;5012967;28;20081;-44
2022/11/11 01:13:24;;;;;;;25.42;12.88;;;;;;;13.81;71.32;102803.41;5014272;28;20518;-42
2022/11/11 01:15:52;;;;;;;22.30;12.73;;;;;;;13.90;71.29;102798.47;5015031;28;20030;-43
2022/11/11 01:18:23;;;;;;;21.65;12.23;;;;;;;14.19;69.98;102794.06;5014962;28;20048;-43
2022/11/11 01:20:57;;;;;;;24.92;12.88;;;;;;;13.82;71.26;102802.56;5014517;28;20470;-43
2022/11/11 01:23:22;;;;;;;22.38;12.18;;;;;;;14.06;70.80;102800.69;5014420;28;20463;-43
2022/11/11 01:25:48;;;;;;;23.65;12.60;;;;;;;14.04;70.45;102812.84;5013989;28;20037;-46
2022/11/11 01:28:13;;;;;;;23.10;12.45;;;;;;;14.05;70.53;102806.78;5012475;28;20033;-43
2022/11/11 01:30:39;;;;;;;25.20;12.80;;;;;;;14.10;70.48;102802.53;5011915;28;20025;-44
2022/11/11 01:33:04;;;;;;;25.25;13.10;;;;;;;13.85;71.43;102807.88;5012494;28;20422;-44
2022/11/11 01:35:30;;;;;;;29.50;12.82;;;;;;;13.80;71.29;102812.09;5012606;28;20029;-43
2022/11/11 01:37:57;;;;;;;23.52;12.65;;;;;;;14.03;70.69;102818.03;5012648;28;20049;-45
2022/11/11 01:40:22;;;;;;;23.95;12.02;;;;;;;14.05;70.42;102821.63;5012274;28;20034;-43
2022/11/11 01:43:11;;;;;;;23.45;12.65;;;;;;;14.07;70.50;102820.84;5012493;28;20028;-43
2022/11/11 01:45:53;;;;;;;24.35;12.45;;;;;;;13.81;70.74;102822.66;5004030;28;20148;-42
2022/11/11 01:51:36;;;;;;;25.73;12.75;;;;;;;13.88;71.02;102809.72;5012173;28;20040;-44
2022/11/11 01:54:05;;;;;;;;;;;;;;;13.70;71.69;102795.22;5013488;28;20018;-43
2022/11/11 01:56:30;;;;;;;23.33;12.30;;;;;;;13.72;71.81;102797.91;5012588;28;19909;-44
2022/11/11 01:59:00;;;;;;;23.77;12.68;;;;;;;13.96;70.72;102796.03;5012223;28;20033;-43
2022/11/11 02:01:25;;;;;;;26.65;13.02;;;;;;;13.88;71.29;102792.28;5011490;28;20061;-44
2022/11/11 02:06:38;;;;;;;24.58;13.40;;;;;;;13.68;71.64;102803.88;5012108;28;20080;-48
2022/11/11 02:09:05;;;;;;;21.67;12.13;;;;;;;14.03;70.44;102808.44;5010451;28;20485;-42
2022/11/11 02:17:00;;;;;;;23.73;12.35;;;;;;;14.15;69.93;102811.44;5012903;28;20099;-45
2022/11/11 02:19:42;;;;;;;24.08;13.07;;;;;;;13.82;70.93;102803.47;5014769;28;20033;-42
2022/11/11 02:22:16;;;;;;;25.60;12.82;;;;;;;13.72;71.86;102801.38;5013157;28;20037;-42
2022/11/11 02:24:42;;;;;;;24.77;12.43;;;;;;;14.12;70.07;102806.13;5013460;28;20033;-44
2022/11/11 02:27:15;;;;;;;24.80;12.50;;;;;;;13.97;70.90;102796.88;5013948;28;20025;-46
2022/11/11 02:29:43;;;;;;;27.15;12.25;;;;;;;14.11;69.69;102809.56;5013654;28;20022;-42
2022/11/11 02:32:09;;;;;;;22.63;12.60;;;;;;;14.19;69.48;102810.69;5012279;28;20025;-45
2022/11/11 02:34:34;;;;;;;26.17;13.40;;;;;;;14.07;69.74;102812.97;5011320;28;20141;-47
2022/11/11 02:37:03;;;;;;;27.50;13.40;;;;;;;13.89;70.98;102807.16;5011697;28;20030;-43
2022/11/11 02:39:29;;;;;;;26.33;13.57;;;;;;;13.96;70.59;102811.75;5011316;28;20021;-45
2022/11/11 02:41:57;;;;;;;24.50;13.30;;;;;;;13.82;70.79;102808.72;5011037;28;20030;-42
2022/11/11 02:44:26;;;;;;;24.95;13.45;;;;;;;14.00;70.45;102812.72;5010834;28;20029;-43
2022/11/11 02:46:51;;;;;;;29.88;13.93;;;;;;;13.56;72.04;102809.63;5011108;28;20057;-44
2022/11/11 02:49:17;;;;;;;28.65;14.35;;;;;;;13.84;71.07;102800.00;5011227;28;20186;-44
2022/11/11 02:51:42;;;;;;;30.20;14.65;;;;;;;13.88;70.73;102804.50;5010351;28;20034;-44
2022/11/11 02:54:08;;;;;;;29.30;13.90;;;;;;;13.89;70.60;102798.41;5010957;28;20025;-43
2022/11/11 02:59:17;;;;;;;29.93;14.60;;;;;;;13.79;71.03;102805.09;5010741;28;20084;-47
2022/11/11 03:01:43;;;;;;;29.55;14.52;;;;;;;13.84;70.50;102814.00;5010209;28;20773;-46
2022/11/11 03:04:08;;;;;;;28.05;14.55;;;;;;;13.55;71.71;102815.69;5010981;28;20041;-43
2022/11/11 03:06:34;;;;;;;33.22;14.80;;;;;;;13.87;70.94;102816.72;5010640;28;20025;-45
2022/11/11 03:08:59;;;;;;;27.90;13.85;;;;;;;13.95;70.48;102822.19;5010649;28;20029;-42
2022/11/11 03:11:27;;;;;;;30.10;14.73;;;;;;;13.89;71.18;102822.00;5010109;28;20029;-43
2022/11/11 03:13:59;;;;;;;31.45;14.98;;;;;;;14.01;70.38;102822.38;5012075;28;20102;-45
2022/11/11 03:19:11;;;;;;;26.52;14.23;;;;;;;14.07;69.97;102820.84;4980273;28;20122;-45
2022/11/11 03:21:36;;;;;;;28.40;14.73;;;;;;;14.01;70.23;102823.28;5011330;28;20105;-43
2022/11/11 03:24:02;;;;;;;30.88;15.65;;;;;;;14.02;70.53;102822.44;5010827;28;20034;-43
2022/11/11 03:26:27;;;;;;;31.17;15.48;;;;;;;13.94;70.53;102821.31;5010445;28;20056;-43
2022/11/11 03:28:52;;;;;;;28.80;14.77;;;;;;;14.07;70.27;102815.59;5010746;28;20049;-41
2022/11/11 03:31:18;;;;;;;31.58;14.30;;;;;;;14.05;70.47;102819.88;5010474;28;20022;-43
2022/11/11 03:33:43;;;;;;;32.65;15.90;;;;;;;14.01;70.68;102822.38;5009793;28;20046;-45
2022/11/11 03:36:09;;;;;;;28.80;15.05;;;;;;;14.18;69.96;102816.78;5025766;28;20029;-43
2022/11/11 03:38:34;;;;;;;30.15;14.32;;;;;;;14.23;70.03;102827.41;5010787;28;20026;-47
2022/11/11 03:40:59;;;;;;;30.15;15.05;;;;;;;14.06;70.56;102819.03;5010416;28;20369;-45
2022/11/11 03:43:30;;;;;;;33.40;15.65;;;;;;;13.87;70.96;102821.06;5010760;28;20018;-44
2022/11/11 03:45:58;;;;;;;33.85;15.05;;;;;;;14.11;70.16;102827.94;5009769;28;20040;-47
2022/11/11 03:48:25;;;;;;;27.70;14.52;;;;;;;14.27;69.86;102823.16;5011479;28;20036;-44
2022/11/11 03:50:51;;;;;;;30.13;15.30;;;;;;;14.08;70.02;102834.84;5010589;28;20033;-44
2022/11/11 03:53:24;;;;;;;29.17;15.18;;;;;;;13.97;70.33;102830.97;5011056;28;20034;-43
2022/11/11 03:55:50;;;;;;;29.92;15.07;;;;;;;14.00;70.62;102834.59;5010826;28;20097;-47
2022/11/11 03:58:16;;;;;;;28.17;14.70;;;;;;;14.13;69.76;102836.75;5010467;28;20505;-43
2022/11/11 04:00:42;;;;;;;30.75;14.88;;;;;;;14.17;69.35;102846.47;5010491;28;20084;-43
2022/11/11 04:11:33;;;;;;;28.15;13.73;;;;;;;14.18;69.58;102855.25;5015090;28;20037;-46
2022/11/11 04:16:47;;;;;;;28.08;13.85;;;;;;;14.13;69.60;102843.72;5016647;28;20041;-44
2022/11/11 04:21:56;;;;;;;28.77;13.98;;;;;;;14.08;69.42;102837.47;5015003;28;20049;-43
2022/11/11 04:27:08;;;;;;;30.10;15.03;;;;;;;13.80;70.08;102836.59;5013467;28;20087;-42
2022/11/11 04:29:34;;;;;;;29.85;14.88;;;;;;;13.93;69.88;102830.00;5013742;28;20128;-43
2022/11/11 04:34:56;;;;;;;29.30;15.23;;;;;;;13.55;71.13;102826.16;5014010;28;20564;-42
2022/11/11 04:37:23;;;;;;;29.40;15.20;;;;;;;13.60;70.76;102821.97;5015039;28;20116;-43
2022/11/11 04:42:34;;;;;;;29.55;15.68;;;;;;;13.66;70.65;102816.06;5015046;28;20112;-43
2022/11/11 04:48:00;;;;;;;31.45;16.08;;;;;;;13.66;70.32;102806.44;5013861;28;20032;-43
2022/11/11 04:50:31;;;;;;;32.72;16.05;;;;;;;13.47;71.09;102803.19;5013002;28;20022;-43
2022/11/11 04:52:57;;;;;;;30.48;15.82;;;;;;;13.53;71.32;102812.16;5013023;28;20105;-45
2022/11/11 04:58:07;;;;;;;31.40;15.50;;;;;;;13.56;71.04;102811.34;5013240;28;20040;-45
2022/11/11 05:00:33;;;;;;;31.48;15.98;;;;;;;13.51;70.94;102808.59;5012427;28;20053;-43
2022/11/11 05:11:12;;;;;;;31.43;16.20;;;;;;;13.39;71.41;102822.19;5013464;28;20036;-42
2022/11/11 05:21:56;;;;;;;30.27;15.90;;;;;;;13.53;70.77;102822.63;5012686;28;20127;-44
2022/11/11 05:27:05;;;;;;;32.60;16.27;;;;;;;13.37;70.64;102825.56;5012978;28;20037;-40
2022/11/11 05:29:31;;;;;;;31.77;15.82;;;;;;;13.40;70.63;102825.69;5015368;28;20021;-41
2022/11/11 05:31:56;;;;;;;30.27;16.08;;;;;;;13.45;70.80;102823.22;5013344;28;20034;-40
2022/11/11 05:34:21;;;;;;;30.27;15.50;;;;;;;13.47;70.84;102825.06;5012978;28;20076;-41
2022/11/11 05:36:47;;;;;;;29.65;15.60;;;;;;;13.17;72.34;102827.56;5012882;28;20080;-41
2022/11/11 05:39:12;;;;;;;32.42;16.02;;;;;;;13.35;71.37;102822.94;5012072;28;20041;-43
2022/11/11 05:41:37;;;;;;;29.20;15.90;;;;;;;13.37;71.22;102826.47;5010730;28;20025;-41
2022/11/11 05:44:03;;;;;;;29.20;14.63;;;;;;;13.45;70.66;102834.59;5012230;28;20025;-42
2022/11/11 05:46:28;;;;;;;30.75;15.38;;;;;;;13.26;71.77;102832.19;5012610;28;20537;-43
2022/11/11 05:51:37;;;;;;;32.38;16.05;;;;;;;13.01;72.30;102847.03;5012314;28;20064;-40
2022/11/11 05:54:02;;;;;;;34.35;15.55;;;;;;;13.13;71.71;102843.09;5012232;28;20422;-41
2022/11/11 05:56:28;;;;;;;30.92;16.17;;;;;;;13.32;71.40;102840.25;5012444;28;20163;-44
2022/11/11 05:58:53;;;;;;;32.03;16.10;;;;;;;13.19;71.83;102840.69;5011936;28;20037;-44
2022/11/11 06:01:18;;;;;;;32.75;15.52;;;;;;;13.36;71.58;102842.13;5011662;28;20025;-40
2022/11/11 06:03:44;;;;;;;33.35;15.80;;;;;;;13.36;71.32;102842.13;5011976;28;20030;-41
2022/11/11 06:06:10;;;;;;;31.38;15.95;;;;;;;13.14;72.44;102851.00;5011990;28;20022;-45
2022/11/11 06:08:35;;;;;;;31.58;15.93;;;;;;;13.28;72.25;102844.53;5011862;28;20101;-42
2022/11/11 06:11:01;;;;;;;33.78;16.25;;;;;;;13.40;71.41;102844.03;5011736;28;20041;-40
2022/11/11 06:13:26;;;;;;;31.50;16.48;;;;;;;13.35;71.62;102848.22;5011814;28;20405;-44
2022/11/11 06:15:51;;;;;;;31.92;16.42;;;;;;;13.23;72.16;102842.59;5012053;28;20446;-42
2022/11/11 06:18:16;;;;;;;34.63;16.38;;;;;;;13.41;71.49;102845.81;5012114;28;20113;-42
2022/11/11 06:20:42;;;;;;;30.65;16.30;;;;;;;13.50;71.60;102840.88;5013756;28;20457;-42
2022/11/11 06:23:07;;;;;;;31.95;15.77;;;;;;;13.09;71.96;102849.03;5013564;28;20059;-42
2022/11/11 06:28:17;;;;;;;30.08;15.90;;;;;;;13.49;71.28;102846.03;5013591;28;20049;-43
2022/11/11 06:30:44;;;;;;;31.00;16.60;;;;;;;13.29;71.68;102848.91;5011275;28;20037;-43
2022/11/11 06:33:10;;;;;;;31.75;16.55;;;;;;;13.32;71.96;102843.78;5013132;28;20553;-40
2022/11/11 06:35:37;;;;;;;30.80;16.20;;;;;;;13.44;70.93;102848.53;5013016;28;20026;-44
2022/11/11 06:38:04;;;;;;;33.47;16.10;;;;;;;13.51;70.64;102853.13;5013180;28;20449;-41
2022/11/11 06:40:29;;;;;;;32.90;16.00;;;;;;;13.27;71.14;102857.56;5012590;28;20038;-43
2022/11/11 06:42:59;;;;;;;32.88;16.67;;;;;;;13.19;71.87;102861.63;5013619;28;20087;-42
2022/11/11 06:45:27;;;;;;;31.42;16.85;;;;;;;13.29;71.58;102863.75;5012986;28;20022;-41
2022/11/11 06:47:52;;;;;;;31.73;17.02;;;;;;;13.21;71.99;102858.25;5013606;28;20036;-41
2022/11/11 06:50:18;;;;;;;30.15;16.13;;;;;;;13.42;70.60;102860.66;5011834;28;20013;-43
2022/11/11 06:52:43;;;;;;;29.73;16.67;;;;;;;13.25;71.03;102860.13;5013331;28;20394;-40
2022/11/11 06:55:09;;;;;;;32.40;16.77;;;;;;;13.12;71.75;102864.84;5013147;28;20041;-41
2022/11/11 06:57:35;;;;;;;30.52;16.42;;;;;;;13.14;71.17;102865.81;5013137;28;20037;-42
2022/11/11 07:00:00;;;;;;;29.08;16.35;;;;;;;13.12;71.65;102862.22;5012909;28;20022;-45
2022/11/11 07:02:25;;;;;;;32.35;16.85;;;;;;;13.06;71.28;102865.53;5012850;28;20569;-40
2022/11/11 07:04:51;;;;;;;29.95;16.60;;;;;;;13.13;71.55;102867.56;5012862;28;20022;-39
2022/11/11 07:07:16;;;;;;;31.58;16.23;;;;;;;13.00;72.03;102867.91;5013173;28;20114;-41
2022/11/11 07:09:42;;;;;;;30.35;16.08;;;;;;;13.27;70.89;102868.94;5015797;28;20018;-40
2022/11/11 07:12:07;;;;;;;31.27;16.25;;;;;;;13.28;70.71;102869.81;5015146;28;20030;-43
2022/11/11 07:14:33;;;;;;;31.00;15.75;;;;;;;13.18;71.24;102870.31;5013355;28;20029;-40
2022/11/11 07:16:58;;;;;;;33.13;15.95;;;;;;;12.99;71.41;102868.78;5014024;28;20048;-40
2022/11/11 07:19:24;;;;;;;29.23;14.88;;;;;;;13.25;71.00;102865.34;5013334;28;20060;-44
2022/11/11 07:21:49;;;;;;;32.60;15.55;;;;;;;12.99;71.57;102869.66;5012543;28;20494;-44
2022/11/11 07:24:14;;;;;;;32.05;14.80;;;;;;;13.24;70.95;102873.16;5011631;28;20030;-43
2022/11/11 07:26:41;;;;;;;31.42;14.73;;;;;;;13.16;71.08;102878.16;5011253;28;20021;-43
2022/11/11 07:29:06;;;;;;;28.98;14.98;;;;;;;13.25;70.64;102883.69;5010829;28;20030;-45
2022/11/11 07:31:31;;;;;;;29.98;14.70;;;;;;;13.30;70.63;102887.34;5010818;28;20064;-43
2022/11/11 07:33:57;;;;;;;29.70;14.43;;;;;;;13.29;70.46;102889.94;5010633;28;20502;-42
2022/11/11 07:36:22;;;;;;;27.85;14.20;;;;;;;13.27;71.02;102889.88;5010599;28;20037;-43
2022/11/11 07:38:47;;;;;;;31.02;15.27;;;;;;;12.88;71.74;102897.19;5010700;28;20018;-42
2022/11/11 07:41:13;;;;;;;29.27;14.50;;;;;;;13.29;70.87;102893.44;5010694;28;20548;-42
2022/11/11 07:43:38;;;;;;;29.02;14.98;;;;;;;13.30;70.95;102896.94;5011113;28;20481;-46
2022/11/11 07:46:03;;;;;;;25.75;14.57;;;;;;;13.42;70.10;102896.50;5010734;28;20124;-41
2022/11/11 07:48:29;;;;;;;30.48;14.52;;;;;;;13.47;70.21;102895.81;5012084;28;20106;-40
2022/11/11 07:50:54;;;;;;;29.25;14.60;;;;;;;13.24;71.31;102897.63;5011258;28;20018;-38
2022/11/11 07:53:19;;;;;;;30.83;15.43;;;;;;;13.29;70.97;102903.94;5012341;28;20026;-42
2022/11/11 07:55:45;;;;;;;29.67;15.32;;;;;;;13.34;70.98;102910.22;5012015;28;20022;-43
2022/11/11 07:58:11;;;;;;;28.13;15.43;;;;;;;13.41;70.83;102903.47;5011641;28;20030;-43
2022/11/11 08:00:36;;;;;;;29.85;15.52;;;;;;;13.38;70.78;102916.44;5011096;28;20064;-43
2022/11/11 08:03:02;;;;;;;30.50;15.88;;;;;;;13.52;70.50;102909.06;5012120;28;20057;-41
2022/11/11 08:05:27;;;;;;;29.33;15.25;;;;;;;13.33;70.92;102916.28;5013558;28;20030;-41
2022/11/11 08:07:52;;;;;;;30.08;16.13;;;;;;;13.36;70.82;102915.47;5013561;28;20022;-41
2022/11/11 08:10:18;;;;;;;30.10;15.98;;;;;;;13.68;69.76;102922.72;5012597;28;20044;-41
2022/11/11 08:15:27;;;;;;;29.02;15.15;;;;;;;13.68;70.06;102930.56;5014255;28;20045;-42
2022/11/11 08:17:52;;;;;;;26.42;15.68;;;;;;;13.85;69.48;102936.38;5013325;28;20034;-42
2022/11/11 08:20:17;;;;;;;26.40;15.90;;;;;;;13.98;69.11;102929.78;5013160;28;20316;-39
2022/11/11 08:22:42;;;;;;;31.58;15.68;;;;;;;13.63;69.85;102934.78;5013704;28;20026;-44
2022/11/11 08:25:12;;;;;;;27.65;15.98;;;;;;;13.93;69.25;102940.13;5013087;28;20136;-43
2022/11/11 08:27:38;;;;;;;28.45;16.20;;;;;;;14.19;68.51;102947.13;5012491;28;20413;-42
2022/11/11 08:30:05;;;;;;;30.95;16.40;;;;;;;14.16;68.51;102948.72;5012381;28;20034;-42
2022/11/11 08:32:30;;;;;;;28.98;16.27;;;;;;;14.22;68.16;102959.41;5012532;28;20034;-44
2022/11/11 08:34:55;;;;;;;30.17;16.15;;;;;;;14.15;68.40;102973.19;5012494;28;20493;-42
2022/11/11 08:37:21;;;;;;;30.23;16.75;;;;;;;14.08;68.36;102961.63;5011264;28;20033;-41
2022/11/11 08:39:46;;;;;;;32.65;16.50;;;;;;;13.87;69.48;102967.88;5010659;28;20038;-43
2022/11/11 08:42:11;;;;;;;31.55;17.35;;;;;;;13.94;69.17;102969.88;5010542;28;20109;-45
2022/11/11 08:44:37;;;;;;;30.17;17.15;;;;;;;14.13;68.76;102969.63;5011272;28;20109;-42
2022/11/11 08:47:02;;;;;;;33.83;17.33;;;;;;;14.09;68.92;102962.50;5011478;28;20026;-42
2022/11/11 08:49:27;;;;;;;28.58;16.42;;;;;;;14.40;68.36;102972.25;5015789;28;20057;-43
2022/11/11 08:51:53;;;;;;;27.58;16.58;;;;;;;14.41;68.04;102968.78;5014381;28;20022;-45
2022/11/11 08:54:18;;;;;;;34.33;17.55;;;;;;;14.34;68.22;102967.66;5014763;28;20129;-46
2022/11/11 08:56:43;;;;;;;33.50;17.00;;;;;;;14.43;68.07;102975.00;5014356;28;20022;-40
2022/11/11 08:59:09;;;;;;;34.25;17.95;;;;;;;14.26;68.35;102970.91;5013790;28;20404;-45
2022/11/11 09:01:35;;;;;;;30.60;17.40;;;;;;;14.62;67.35;102977.34;5014799;28;20030;-44
2022/11/11 09:04:01;;;;;;;31.98;17.75;;;;;;;14.54;67.13;102974.47;5014019;28;20119;-45
2022/11/11 09:06:27;;;;;;;32.42;17.77;;;;;;;14.25;68.00;102977.91;5014012;28;20089;-41
2022/11/11 09:08:53;;;;;;;33.00;17.33;;;;;;;14.55;67.23;102984.13;5013570;28;20232;-42
2022/11/11 09:11:18;;;;;;;32.97;18.25;;;;;;;14.40;67.96;102980.13;5013046;28;20252;-48
2022/11/11 09:13:45;;;;;;;35.10;18.70;;;;;;;14.61;67.08;102983.41;5011775;28;20060;-43
2022/11/11 09:16:10;;;;;;;30.30;18.58;;;;;;;14.64;66.98;102996.63;5013309;28;20041;-44
2022/11/11 09:18:36;;;;;;;31.92;17.60;;;;;;;14.54;67.35;102992.84;5012955;28;20072;-43
2022/11/11 09:21:02;;;;;;;33.17;18.58;;;;;;;14.46;67.10;102996.06;5027869;22;20050;-44
2022/11/11 09:23:28;;;;;;;33.35;18.77;;;;;;;14.01;68.98;103001.59;5027807;28;20129;-46
2022/11/11 09:25:53;;;;;;;34.17;18.52;;;;;;;14.38;67.80;102995.84;5030334;28;20522;-44
2022/11/11 09:28:18;;;;;;;36.33;18.48;;;;;;;14.36;67.93;102992.25;5029555;28;20116;-43
2022/11/11 09:30:44;;;;;;;32.58;18.98;;;;;;;14.60;67.30;103006.16;5012164;28;20100;-46
2022/11/11 09:33:11;;;;;;;32.10;17.92;;;;;;;14.71;66.83;103013.47;5011451;28;20150;-44
2022/11/11 09:35:37;;;;;;;33.95;18.67;;;;;;;14.50;66.91;103005.84;5012245;28;20021;-42
2022/11/11 09:38:03;;;;;;;29.98;17.92;;;;;;;14.87;65.80;103007.84;5012390;28;20030;-42
2022/11/11 09:40:52;;;;;;;31.30;17.83;;;;;;;14.77;66.20;103014.53;5011695;28;20542;-44
2022/11/11 09:43:35;;;;;;;31.35;18.35;;;;;;;14.54;67.34;103016.47;5027242;28;20498;-46
2022/11/11 09:46:00;;;;;;;29.25;17.48;;;;;;;14.83;66.62;103013.81;5011816;28;20061;-47
2022/11/11 09:48:50;;;;;;;32.70;18.48;;;;;;;15.16;65.53;103030.59;5011817;28;20054;-46
2022/11/11 09:51:24;;;;;;;31.13;17.95;;;;;;;14.70;66.53;103019.59;5011980;28;20025;-44
2022/11/11 09:53:55;;;;;;;31.45;17.90;;;;;;;15.05;65.44;103026.78;5012171;28;20424;-47
2022/11/11 09:56:23;;;;;;;29.45;17.05;;;;;;;15.20;65.20;103028.94;5012393;28;20022;-44
2022/11/11 09:59:01;;;;;;;31.20;17.33;;;;;;;15.28;65.11;103033.56;5012339;28;20025;-43
2022/11/11 10:01:38;;;;;;;28.45;16.70;;;;;;;15.36;64.43;103039.94;5010699;28;20025;-42
2022/11/11 10:04:32;;;;;;;26.02;16.20;;;;;;;15.36;64.60;103042.56;5012169;28;20057;-42
2022/11/11 10:07:05;;;;;;;29.15;16.25;;;;;;;15.05;65.49;103047.78;4998845;28;20430;-47
2022/11/11 10:09:40;;;;;;;28.33;17.42;;;;;;;15.21;64.87;103046.47;5012289;28;20383;-49
2022/11/11 10:12:14;;;;;;;28.63;16.63;;;;;;;15.25;64.29;103056.22;5013184;28;20049;-44
2022/11/11 10:14:45;;;;;;;27.35;17.35;;;;;;;14.87;64.98;103049.84;5011834;28;20053;-45
2022/11/11 10:17:15;;;;;;;29.27;17.55;;;;;;;15.07;64.79;103055.69;5012096;28;20036;-45
2022/11/11 10:19:47;;;;;;;28.85;17.10;;;;;;;15.26;64.48;103053.66;5011740;28;20045;-44
2022/11/11 10:22:21;;;;;;;27.65;16.25;;;;;;;15.31;64.32;103051.13;5011768;28;20140;-44
2022/11/11 10:24:59;;;;;;;25.60;17.05;;;;;;;15.43;63.68;103049.75;5011603;28;20029;-50
2022/11/11 10:27:25;;;;;;;24.85;16.15;;;;;;;15.52;63.60;103054.41;5011952;28;20049;-44
2022/11/11 10:29:50;;;;;;;28.20;16.02;;;;;;;15.60;63.50;103052.91;5011919;28;20192;-43
2022/11/11 10:32:26;;;;;;;27.75;17.13;;;;;;;15.39;63.74;103057.50;5010984;28;20021;-46
2022/11/11 10:34:52;;;;;;;29.85;16.45;;;;;;;15.39;63.89;103058.41;5011343;28;20036;-45
2022/11/11 10:37:22;;;;;;;27.75;16.27;;;;;;;15.28;63.84;103053.69;5011150;28;20025;-43
2022/11/11 10:39:59;;;;;;;26.73;16.13;;;;;;;15.43;63.83;103052.38;5011078;28;20390;-44
2022/11/11 10:42:24;;;;;;;25.50;16.15;;;;;;;15.17;64.63;103055.13;5010779;28;20049;-48
2022/11/11 10:44:57;;;;;;;26.00;15.32;;;;;;;15.07;64.64;103059.22;5013751;28;20065;-44
2022/11/11 10:47:50;;;;;;;26.55;15.20;;;;;;;15.19;64.50;103058.66;5014901;28;20116;-44
2022/11/11 10:50:33;;;;;;;23.83;15.15;;;;;;;15.36;64.36;103058.34;5011322;28;20037;-45
2022/11/11 10:53:22;;;;;;;26.42;15.40;;;;;;;15.20;64.66;103052.56;5011031;28;20331;-45
2022/11/11 10:56:16;;;;;;;26.08;14.63;;;;;;;15.37;64.13;103053.94;5010941;28;20030;-47
2022/11/11 10:59:00;;;;;;;24.10;14.77;;;;;;;15.39;64.13;103055.78;5009683;28;20017;-44
2022/11/11 11:01:36;;;;;;;23.58;14.68;;;;;;;15.15;63.98;103054.19;5010474;28;20100;-45
2022/11/11 11:04:09;;;;;;;22.60;15.45;;;;;;;14.90;64.30;103047.31;5011210;28;20039;-44
2022/11/11 11:06:39;;;;;;;24.48;15.02;;;;;;;15.16;64.05;103050.72;5010463;28;20056;-46
2022/11/11 11:09:28;;;;;;;21.52;14.20;;;;;;;15.48;63.50;103049.91;5010482;28;20088;-44
2022/11/11 11:12:05;;;;;;;22.23;13.75;;;;;;;15.57;63.39;103051.91;5009902;28;20036;-45
2022/11/11 11:14:38;;;;;;;24.15;14.10;;;;;;;15.68;63.32;103051.34;5010606;28;20447;-43
2022/11/11 11:17:12;;;;;;;22.77;13.63;;;;;;;15.24;64.03;103054.47;5010202;28;20471;-45
2022/11/11 11:19:37;;;;;;;22.15;13.57;;;;;;;15.09;64.51;103056.63;5012403;28;20032;-48
2022/11/11 11:22:03;;;;;;;22.63;14.15;;;;;;;15.36;64.06;103053.09;5012879;28;20073;-44
2022/11/11 11:24:35;;;;;;;24.10;14.55;;;;;;;15.27;63.52;103052.81;5026609;28;20440;-44
2022/11/11 11:27:04;;;;;;;21.95;14.32;;;;;;;15.62;63.30;103035.41;5011584;28;20044;-43
2022/11/11 11:29:37;;;;;;;22.25;14.10;;;;;;;15.36;64.43;103041.69;5010970;28;20489;-43
2022/11/11 11:32:41;;;;;;;20.23;13.10;;;;;;;15.32;63.96;103034.53;5010568;28;20032;-44
2022/11/11 11:35:07;;;;;;;22.80;12.90;;;;;;;15.43;63.91;103039.25;5008259;28;20113;-44
2022/11/11 11:37:50;;;;;;;20.50;13.32;;;;;;;15.54;63.15;103039.59;5025690;28;20590;-43
2022/11/11 11:40:15;;;;;;;21.50;12.38;;;;;;;15.37;63.43;103039.06;5008598;28;20022;-46
2022/11/11 11:42:42;;;;;;;20.55;12.60;;;;;;;15.16;64.24;103042.84;5009923;28;20076;-50
2022/11/11 11:45:28;;;;;;;18.85;11.98;;;;;;;15.34;64.15;103044.25;5010136;28;20080;-42
2022/11/11 11:47:53;;;;;;;19.33;12.05;;;;;;;14.98;64.61;103043.19;5010123;28;20486;-44
2022/11/11 11:50:49;;;;;;;19.75;11.75;;;;;;;15.39;64.15;103042.63;5009746;28;20030;-43
2022/11/11 11:53:49;;;;;;;19.15;12.00;;;;;;;15.18;64.44;103042.03;5005056;28;20104;-47
2022/11/11 11:56:20;;;;;;;17.88;11.73;;;;;;;15.36;63.51;103046.94;5010058;28;20037;-47
2022/11/11 11:59:07;;;;;;;19.52;11.77;;;;;;;15.55;63.98;103046.63;5009910;28;20101;-46
2022/11/11 12:01:51;;;;;;;21.30;11.95;;;;;;;15.58;63.19;103046.69;5009625;28;20049;-44
2022/11/11 12:04:40;;;;;;;18.65;11.43;;;;;;;15.33;63.34;103044.19;5009865;28;20092;-46
2022/11/11 12:07:13;;;;;;;24.80;11.60;;;;;;;15.37;63.27;103039.06;5009876;28;20579;-46
2022/11/11 12:09:51;;;;;;;17.67;11.10;;;;;;;14.99;64.93;103038.00;5009652;28;20494;-46
2022/11/11 12:12:25;;;;;;;15.88;10.95;;;;;;;15.11;64.60;103039.19;5009377;28;20026;-43
2022/11/11 12:15:08;;;;;;;;;;;;;;;15.14;64.41;103045.41;5008929;28;20026;-44
2022/11/11 12:17:57;;;;;;;17.63;10.95;;;;;;;15.22;64.10;103036.03;5009895;28;19910;-44
2022/11/11 12:20:58;;;;;;;17.60;10.88;;;;;;;15.19;64.48;103037.66;5009663;28;20030;-46
2022/11/11 12:23:45;;;;;;;20.58;11.18;;;;;;;15.48;64.38;103036.75;5009567;28;20030;-45
2022/11/11 12:26:13;;;;;;;18.35;11.07;;;;;;;15.52;63.88;103036.03;5012926;28;20042;-44
2022/11/11 12:28:56;;;;;;;17.05;10.52;;;;;;;15.83;63.21;103035.09;5013401;28;20034;-45
2022/11/11 12:31:40;;;;;;;17.48;10.75;;;;;;;15.90;62.64;103031.78;5012980;28;20021;-48
2022/11/11 12:34:21;;;;;;;18.33;10.82;;;;;;;15.94;62.67;103030.09;5013443;28;20505;-45
2022/11/11 12:36:59;;;;;;;18.23;10.35;;;;;;;16.13;62.30;103024.47;5013486;28;20080;-48
2022/11/11 12:39:37;;;;;;;16.40;10.68;;;;;;;16.23;62.25;103034.34;5028467;28;20494;-47
2022/11/11 12:42:11;;;;;;;17.10;10.75;;;;;;;16.08;62.47;103036.63;5014044;28;20056;-44
2022/11/11 12:45:08;;;;;;;18.15;11.25;;;;;;;15.88;62.67;103030.84;5015257;28;20025;-43
2022/11/11 12:47:39;;;;;;;17.45;10.68;;;;;;;16.05;62.37;103032.16;4988813;28;20053;-42
2022/11/11 12:50:17;;;;;;;17.67;10.63;;;;;;;15.80;63.14;103035.00;5013589;28;20026;-44